createdAt,value
2019-01-21T00:01:03.237Z,596.33
2019-01-21T00:03:30.662Z,583.03
2019-01-21T00:05:58.269Z,623.03
2019-01-21T00:08:25.716Z,649.53
2019-01-21T00:10:53.283Z,648.90
2019-01-21T00:13:20.777Z,671.53
2019-01-21T00:15:49.462Z,640.67
2019-01-21T00:18:16.979Z,633.77
2019-01-21T00:20:44.516Z,654.23
2019-01-21T00:23:12.296Z,605.30
2019-01-21T00:25:39.771Z,667.97
2019-01-21T00:28:07.277Z,665.93
2019-01-21T00:30:34.763Z,677.20
2019-01-21T00:33:02.936Z,695.90
2019-01-21T00:35:30.524Z,785.17
2019-01-21T00:37:58.056Z,884.97
2019-01-21T00:40:25.431Z,938.93
2019-01-21T00:42:52.943Z,939.23
2019-01-21T00:45:20.396Z,836.33
2019-01-21T00:47:47.870Z,780.63
2019-01-21T00:50:15.432Z,808.57
2019-01-21T00:52:43.024Z,779.70
2019-01-21T00:55:11.333Z,730.23
2019-01-21T00:57:38.775Z,780.90
2019-01-21T01:00:07.736Z,724.43
2019-01-21T01:02:35.186Z,731.47
2019-01-21T01:05:02.642Z,696.17
2019-01-21T01:07:30.152Z,733.27
2019-01-21T01:09:57.626Z,747.97
2019-01-21T01:12:26.213Z,727.17
2019-01-21T01:14:53.680Z,693.93
2019-01-21T01:17:21.127Z,653.80
2019-01-21T01:19:48.596Z,654.10
2019-01-21T01:22:16.424Z,640.73
2019-01-21T01:24:43.925Z,743.37
2019-01-21T01:27:11.383Z,721.10
2019-01-21T01:29:38.869Z,719.67
2019-01-21T01:32:07.310Z,737.90
2019-01-21T01:34:34.866Z,720.80
2019-01-21T01:37:04.009Z,620.73
2019-01-21T01:39:31.418Z,557.33
2019-01-21T01:42:01.222Z,512.67
2019-01-21T01:44:28.984Z,364.90
2019-01-21T01:46:56.526Z,418.83
2019-01-21T01:49:24.048Z,397.93
2019-01-21T01:51:52.046Z,379.87
2019-01-21T01:54:19.763Z,388.47
2019-01-21T01:56:48.798Z,371.60
2019-01-21T01:59:16.326Z,379.97
2019-01-21T02:01:43.852Z,376.80
2019-01-21T02:04:12.716Z,374.07
2019-01-21T02:06:40.192Z,395.43
2019-01-21T02:09:07.692Z,378.80
2019-01-21T02:11:35.664Z,398.90
2019-01-21T02:14:03.118Z,370.50
2019-01-21T02:16:32.152Z,249.93
2019-01-21T02:18:59.746Z,323.23
2019-01-21T02:21:27.197Z,284.73
2019-01-21T02:23:56.258Z,266.67
2019-01-21T02:26:23.850Z,274.40
2019-01-21T02:28:54.270Z,280.90
2019-01-21T02:31:39.794Z,280.33
2019-01-21T02:34:14.901Z,307.17
2019-01-21T02:37:00.476Z,287.73
2019-01-21T02:39:29.560Z,276.17
2019-01-21T02:41:58.719Z,353.27
2019-01-21T02:44:28.239Z,326.53
2019-01-21T02:46:57.326Z,436.47
2019-01-21T02:49:42.957Z,272.47
2019-01-21T02:52:13.380Z,259.67
2019-01-21T02:54:42.639Z,253.67
2019-01-21T02:57:21.017Z,259.73
2019-01-21T02:59:56.028Z,243.47
2019-01-21T03:02:35.192Z,273.73
2019-01-21T03:05:04.314Z,241.20
2019-01-21T03:07:50.165Z,244.00
2019-01-21T03:10:25.261Z,248.73
2019-01-21T03:13:06.187Z,262.70
2019-01-21T03:15:44.075Z,244.17
2019-01-21T03:18:13.111Z,233.90
2019-01-21T03:20:59.188Z,260.57
2019-01-21T03:23:44.895Z,223.87
2019-01-21T03:26:18.167Z,223.13
2019-01-21T03:28:50.457Z,240.97
2019-01-21T03:31:19.614Z,247.50
2019-01-21T03:33:57.474Z,256.93
2019-01-21T03:36:43.237Z,276.60
2019-01-21T03:39:15.381Z,314.53
2019-01-21T03:41:50.478Z,271.50
2019-01-21T03:44:21.689Z,259.30
2019-01-21T03:47:07.604Z,272.83
2019-01-21T03:49:37.815Z,245.70
2019-01-21T03:52:29.963Z,245.40
2019-01-21T03:54:58.019Z,236.57
2019-01-21T03:57:29.721Z,304.37
2019-01-21T04:00:04.817Z,222.13
2019-01-21T04:02:39.847Z,230.53
2019-01-21T04:05:17.849Z,251.07
2019-01-21T04:07:56.773Z,240.83
2019-01-21T04:10:42.674Z,209.37
2019-01-21T04:13:23.899Z,234.47
2019-01-21T04:15:59.399Z,220.00
2019-01-21T04:18:48.323Z,232.67
2019-01-21T04:21:29.698Z,254.20
2019-01-21T04:24:05.513Z,238.77
2019-01-21T04:26:35.609Z,261.20
2019-01-21T04:29:04.705Z,240.67
2019-01-21T04:31:36.361Z,214.27
2019-01-21T04:34:06.789Z,247.60
2019-01-21T04:36:35.865Z,263.70
2019-01-21T04:39:04.878Z,224.90
2019-01-21T04:41:48.925Z,344.90
2019-01-21T04:44:17.940Z,290.20
2019-01-21T04:46:56.247Z,333.63
2019-01-21T04:49:34.546Z,242.87
2019-01-21T04:52:09.891Z,200.73
2019-01-21T04:54:38.925Z,248.07
2019-01-21T04:57:08.080Z,243.73
2019-01-21T04:59:55.221Z,217.87
2019-01-21T05:02:24.206Z,228.67
2019-01-21T05:04:55.899Z,232.57
2019-01-21T05:07:40.202Z,191.47
2019-01-21T05:10:10.550Z,180.93
2019-01-21T05:12:39.543Z,193.97
2019-01-21T05:15:14.601Z,235.53
2019-01-21T05:18:00.494Z,194.80
2019-01-21T05:20:29.584Z,243.27
2019-01-21T05:22:58.648Z,201.33
2019-01-21T05:25:28.120Z,206.27
2019-01-21T05:27:57.182Z,203.67
2019-01-21T05:30:26.253Z,195.00
2019-01-21T05:32:55.356Z,222.57
2019-01-21T05:35:33.133Z,199.07
2019-01-21T05:38:02.396Z,199.43
2019-01-21T05:40:37.244Z,170.57
2019-01-21T05:43:06.368Z,155.60
2019-01-21T05:45:47.418Z,202.73
2019-01-21T05:48:16.630Z,154.43
2019-01-21T05:50:45.736Z,156.63
2019-01-21T05:53:23.825Z,213.10
2019-01-21T05:55:55.678Z,212.33
2019-01-21T05:58:24.727Z,163.97
2019-01-21T06:00:53.846Z,204.73
2019-01-21T06:03:38.135Z,177.63
2019-01-21T06:06:07.190Z,166.20
2019-01-21T06:08:52.552Z,161.67
2019-01-21T06:11:21.650Z,150.50
2019-01-21T06:13:50.615Z,175.10
2019-01-21T06:16:31.441Z,180.37
2019-01-21T06:19:12.397Z,167.23
2019-01-21T06:21:57.692Z,159.83
2019-01-21T06:24:42.928Z,174.57
2019-01-21T06:27:17.488Z,175.50
2019-01-21T06:29:49.580Z,174.80
2019-01-21T06:32:33.955Z,164.00
2019-01-21T06:35:03.034Z,161.87
2019-01-21T06:37:34.918Z,156.10
2019-01-21T06:40:12.928Z,157.37
2019-01-21T06:42:47.848Z,165.20
2019-01-21T06:45:16.960Z,150.17
2019-01-21T06:47:45.942Z,144.23
2019-01-21T06:50:15.083Z,154.97
2019-01-21T06:52:52.920Z,175.33
2019-01-21T06:55:34.200Z,171.17
2019-01-21T06:58:12.571Z,175.87
2019-01-21T07:00:44.757Z,142.13
2019-01-21T07:03:13.800Z,160.30
2019-01-21T07:05:57.952Z,148.20
2019-01-21T07:08:30.130Z,152.73
2019-01-21T07:10:59.328Z,153.73
2019-01-21T07:13:43.615Z,155.30
2019-01-21T07:16:12.746Z,157.13
2019-01-21T07:18:47.978Z,149.37
2019-01-21T07:21:22.974Z,135.27
2019-01-21T07:24:08.809Z,136.53
2019-01-21T07:26:43.858Z,134.97
2019-01-21T07:29:25.027Z,148.13
2019-01-21T07:31:54.082Z,149.33
2019-01-21T07:34:39.914Z,148.17
2019-01-21T07:37:27.462Z,156.40
2019-01-21T07:40:13.115Z,141.20
2019-01-21T07:42:52.193Z,142.47
2019-01-21T07:45:30.504Z,152.43
2019-01-21T07:48:05.228Z,147.90
2019-01-21T07:50:34.526Z,148.90
2019-01-21T07:53:03.622Z,156.00
2019-01-21T07:55:35.451Z,165.77
2019-01-21T07:58:07.147Z,158.47
2019-01-21T08:00:45.456Z,162.87
2019-01-21T08:03:17.154Z,162.47
2019-01-21T08:05:46.294Z,167.47
2019-01-21T08:08:15.261Z,166.23
2019-01-21T08:11:01.216Z,184.70
2019-01-21T08:13:38.396Z,155.67
2019-01-21T08:16:26.199Z,159.23
2019-01-21T08:18:55.219Z,158.33
2019-01-21T08:21:41.319Z,175.77
2019-01-21T08:24:10.409Z,168.67
2019-01-21T08:26:39.488Z,176.27
2019-01-21T08:29:17.638Z,171.50
2019-01-21T08:31:46.694Z,172.37
2019-01-21T08:34:17.339Z,187.17
2019-01-21T08:36:46.432Z,165.67
2019-01-21T08:39:22.588Z,178.07
2019-01-21T08:42:00.458Z,179.70
2019-01-21T08:44:38.456Z,164.43
2019-01-21T08:47:16.972Z,158.07
2019-01-21T08:49:48.876Z,158.53
2019-01-21T08:52:17.969Z,170.63
2019-01-21T08:55:03.764Z,150.87
2019-01-21T08:57:32.928Z,154.90
2019-01-21T09:00:05.090Z,153.53
2019-01-21T09:02:34.188Z,159.10
2019-01-21T09:05:10.799Z,157.03
2019-01-21T09:07:39.882Z,163.53
2019-01-21T09:10:14.981Z,163.63
2019-01-21T09:12:50.110Z,167.33
2019-01-21T09:15:31.921Z,157.83
2019-01-21T09:18:02.582Z,174.07
2019-01-21T09:21:00.005Z,164.67
2019-01-21T09:23:30.228Z,172.47
2019-01-21T09:26:02.341Z,167.80
2019-01-21T09:28:43.578Z,168.67
2019-01-21T09:31:15.279Z,158.17
2019-01-21T09:33:50.123Z,162.07
2019-01-21T09:36:24.793Z,168.30
2019-01-21T09:38:59.335Z,182.13
2019-01-21T09:41:32.121Z,187.87
2019-01-21T09:44:02.197Z,188.93
2019-01-21T09:46:37.341Z,174.67
2019-01-21T09:49:04.387Z,178.37
2019-01-21T09:51:31.925Z,171.00
2019-01-21T09:53:59.446Z,173.03
2019-01-21T09:56:28.705Z,169.50
2019-01-21T09:58:57.728Z,176.40
2019-01-21T10:01:26.391Z,161.77
2019-01-21T10:03:53.943Z,178.50
2019-01-21T10:06:22.146Z,186.03
2019-01-21T10:08:51.331Z,185.97
2019-01-21T10:11:23.751Z,175.17
2019-01-21T10:13:52.877Z,179.07
2019-01-21T10:16:27.516Z,185.63
2019-01-21T10:19:13.197Z,191.70
2019-01-21T10:22:00.802Z,192.47
2019-01-21T10:24:30.275Z,192.30
2019-01-21T10:26:59.266Z,201.80
2019-01-21T10:29:35.741Z,199.97
2019-01-21T10:32:08.571Z,190.87
2019-01-21T10:34:43.391Z,197.57
2019-01-21T10:37:28.879Z,207.97
2019-01-21T10:39:59.758Z,205.00
2019-01-21T10:42:43.799Z,198.67
2019-01-21T10:45:23.180Z,197.73
2019-01-21T10:47:52.475Z,208.87
2019-01-21T10:50:28.114Z,208.07
2019-01-21T10:53:00.287Z,197.30
2019-01-21T10:55:35.290Z,188.73
2019-01-21T10:58:04.390Z,192.17
2019-01-21T11:00:39.565Z,215.00
2019-01-21T11:03:08.542Z,200.77
2019-01-21T11:05:59.790Z,196.43
2019-01-21T11:08:28.872Z,214.03
2019-01-21T11:11:07.120Z,209.03
2019-01-21T11:13:37.900Z,205.93
2019-01-21T11:16:11.679Z,219.03
2019-01-21T11:18:43.439Z,215.43
2019-01-21T11:21:15.447Z,210.93
2019-01-21T11:24:00.933Z,210.63
2019-01-21T11:26:33.049Z,190.90
2019-01-21T11:29:15.456Z,211.57
2019-01-21T11:31:47.328Z,198.70
2019-01-21T11:34:16.470Z,187.40
2019-01-21T11:36:45.570Z,196.27
2019-01-21T11:39:28.917Z,208.53
2019-01-21T11:41:58.002Z,206.43
2019-01-21T11:44:40.608Z,189.13
2019-01-21T11:47:09.683Z,199.27
2019-01-21T11:49:52.616Z,203.57
2019-01-21T11:52:21.727Z,205.20
2019-01-21T11:55:05.300Z,191.83
2019-01-21T11:57:39.468Z,187.63
2019-01-21T12:00:16.238Z,196.80
2019-01-21T12:02:53.021Z,206.97
2019-01-21T12:05:31.630Z,205.93
2019-01-21T12:08:03.491Z,198.37
2019-01-21T12:10:34.084Z,205.43
2019-01-21T12:13:05.891Z,215.57
2019-01-21T12:15:51.580Z,196.20
2019-01-21T12:18:20.672Z,203.67
2019-01-21T12:21:02.234Z,190.97
2019-01-21T12:23:34.334Z,179.03
2019-01-21T12:26:03.392Z,184.00
2019-01-21T12:28:35.350Z,187.40
2019-01-21T12:31:10.804Z,184.23
2019-01-21T12:33:39.860Z,191.17
2019-01-21T12:39:08.932Z,196.97
2019-01-21T12:41:41.031Z,197.20
2019-01-21T12:44:22.063Z,199.73
2019-01-21T12:46:53.766Z,201.83
2019-01-21T12:49:22.840Z,213.20
2019-01-21T12:51:52.714Z,195.13
2019-01-21T12:54:21.708Z,206.47
2019-01-21T12:56:50.780Z,194.40
2019-01-21T12:59:26.376Z,214.33
2019-01-21T13:01:56.297Z,207.37
2019-01-21T13:04:25.420Z,191.73
2019-01-21T13:07:03.440Z,204.77
2019-01-21T13:09:35.330Z,208.57
2019-01-21T13:12:11.798Z,193.17
2019-01-21T13:14:49.820Z,206.23
2019-01-21T13:17:21.520Z,205.20
2019-01-21T13:20:02.975Z,200.43
2019-01-21T13:22:32.026Z,198.43
2019-01-21T13:25:14.683Z,209.30
2019-01-21T13:28:01.764Z,200.73
2019-01-21T13:30:49.190Z,202.57
2019-01-21T13:33:18.246Z,198.03
2019-01-21T13:35:47.296Z,191.23
2019-01-21T13:38:19.342Z,192.87
2019-01-21T13:40:48.438Z,199.13
2019-01-21T13:43:31.151Z,206.60
2019-01-21T13:46:03.499Z,204.37
2019-01-21T13:48:32.588Z,225.63
2019-01-21T13:51:12.972Z,217.80
2019-01-21T13:53:58.925Z,199.07
2019-01-21T13:56:27.931Z,214.57
2019-01-21T13:59:02.804Z,213.33
2019-01-21T14:01:31.862Z,198.43
2019-01-21T14:04:03.948Z,196.20
2019-01-21T14:06:41.803Z,180.30
2019-01-21T14:09:16.756Z,192.73
2019-01-21T14:11:54.871Z,232.17
2019-01-21T14:14:23.883Z,215.17
2019-01-21T14:16:59.222Z,242.20
2019-01-21T14:19:28.282Z,227.43
2019-01-21T14:22:03.342Z,216.23
2019-01-21T14:24:32.395Z,236.80
2019-01-21T14:27:04.353Z,205.50
2019-01-21T14:29:33.425Z,231.77
2019-01-21T14:32:11.190Z,253.27
2019-01-21T14:34:40.381Z,218.20
2019-01-21T14:37:12.208Z,251.10
2019-01-21T14:39:47.059Z,241.63
2019-01-21T14:42:17.405Z,246.13
2019-01-21T14:44:52.553Z,225.40
2019-01-21T14:47:21.642Z,234.87
2019-01-21T14:49:56.498Z,246.73
2019-01-21T14:52:31.244Z,251.00
2019-01-21T14:55:04.149Z,242.30
2019-01-21T14:57:35.888Z,264.97
2019-01-21T15:00:20.175Z,236.30
2019-01-21T15:02:49.243Z,217.50
2019-01-21T15:05:27.579Z,247.03
2019-01-21T15:07:56.717Z,228.50
2019-01-21T15:10:37.962Z,221.57
2019-01-21T15:13:07.449Z,232.43
2019-01-21T15:15:36.591Z,226.37
2019-01-21T15:18:05.594Z,234.67
2019-01-21T15:20:43.724Z,239.23
2019-01-21T15:23:28.159Z,233.17
2019-01-21T15:26:03.564Z,240.47
2019-01-21T15:28:32.086Z,239.47
2019-01-21T15:31:01.180Z,247.00
2019-01-21T15:33:30.237Z,250.07
2019-01-21T15:35:59.416Z,235.70
2019-01-21T15:38:28.452Z,278.60
2019-01-21T15:40:57.484Z,241.33
2019-01-21T15:43:26.638Z,254.93
2019-01-21T15:45:55.932Z,237.17
2019-01-21T15:48:34.163Z,238.50
2019-01-21T15:51:05.117Z,251.17
2019-01-21T15:53:33.985Z,255.47
2019-01-21T15:56:05.756Z,268.07
2019-01-21T15:58:37.589Z,287.97
2019-01-21T16:01:06.655Z,293.00
2019-01-21T16:03:38.427Z,277.43
2019-01-21T16:06:07.463Z,283.40
2019-01-21T16:08:36.526Z,278.53
2019-01-21T16:11:19.353Z,303.80
2019-01-21T16:13:48.108Z,259.23
2019-01-21T16:16:17.145Z,257.80
2019-01-21T16:18:58.111Z,280.33
2019-01-21T16:21:28.723Z,257.03
2019-01-21T16:23:57.787Z,260.80
2019-01-21T16:26:25.853Z,244.50
2019-01-21T16:29:07.154Z,258.87
2019-01-21T16:31:34.693Z,262.10
2019-01-21T16:34:03.744Z,252.80
2019-01-21T16:36:32.806Z,256.53
2019-01-21T16:39:02.958Z,254.03
2019-01-21T16:41:37.545Z,284.20
2019-01-21T16:44:05.027Z,276.03
2019-01-21T16:46:32.514Z,267.53
2019-01-21T16:49:00.027Z,253.47
2019-01-21T16:51:27.412Z,249.77
2019-01-21T16:53:54.991Z,244.93
2019-01-21T16:56:22.450Z,225.60
2019-01-21T16:58:49.984Z,244.57
2019-01-21T17:01:17.443Z,235.47
2019-01-21T17:03:46.493Z,283.40
2019-01-21T17:06:13.908Z,254.57
2019-01-21T17:08:41.342Z,249.90
2019-01-21T17:11:08.780Z,247.97
2019-01-21T17:13:36.188Z,272.20
2019-01-21T17:16:03.672Z,250.13
2019-01-21T17:18:31.252Z,258.20
2019-01-21T17:20:58.683Z,263.17
2019-01-21T17:23:26.180Z,249.30
2019-01-21T17:25:53.597Z,308.03
2019-01-21T17:28:21.162Z,324.27
2019-01-21T17:30:48.658Z,250.70
2019-01-21T17:33:16.160Z,318.67
2019-01-21T17:35:43.662Z,263.23
2019-01-21T17:38:11.111Z,251.50
2019-01-21T17:40:38.566Z,246.87
2019-01-21T17:43:06.158Z,265.93
2019-01-21T17:45:33.692Z,267.23
2019-01-21T17:48:01.312Z,263.37
2019-01-21T17:50:30.438Z,252.47
2019-01-21T17:52:57.909Z,261.37
2019-01-21T17:55:25.434Z,283.93
2019-01-21T17:57:52.923Z,285.03
2019-01-21T18:00:22.191Z,303.70
2019-01-21T18:02:49.655Z,265.97
2019-01-21T18:05:17.172Z,247.60
2019-01-21T18:07:44.695Z,253.87
2019-01-21T18:10:13.741Z,248.87
2019-01-21T18:12:41.764Z,239.50
2019-01-21T18:15:10.259Z,234.53
2019-01-21T18:17:37.671Z,221.30
2019-01-21T18:20:06.659Z,228.70
2019-01-21T18:22:34.177Z,221.33
2019-01-21T18:25:01.686Z,218.10
2019-01-21T18:27:29.173Z,245.50
2019-01-21T18:29:56.695Z,236.17
2019-01-21T18:32:24.355Z,208.03
2019-01-21T18:34:51.845Z,237.70
2019-01-21T18:37:19.300Z,260.80
2019-01-21T18:39:47.370Z,241.13
2019-01-21T18:42:14.932Z,259.30
2019-01-21T18:44:42.490Z,232.83
2019-01-21T18:47:09.956Z,227.97
2019-01-21T18:49:37.513Z,264.63
2019-01-21T18:52:05.168Z,217.50
2019-01-21T18:54:32.637Z,227.70
2019-01-21T18:57:00.180Z,273.30
2019-01-21T18:59:27.714Z,239.30
2019-01-21T19:01:55.373Z,233.70
2019-01-21T19:04:24.083Z,226.40
2019-01-21T19:06:51.567Z,260.80
2019-01-21T19:09:19.355Z,250.10
2019-01-21T19:11:47.237Z,224.13
2019-01-21T19:14:14.657Z,232.00
2019-01-21T19:16:42.189Z,226.27
2019-01-21T19:19:09.637Z,250.43
2019-01-21T19:21:37.123Z,232.60
2019-01-21T19:24:04.741Z,246.63
2019-01-21T19:26:32.167Z,234.83
2019-01-21T19:28:59.752Z,258.33
2019-01-21T19:31:27.069Z,247.73
2019-01-21T19:33:54.620Z,220.40
2019-01-21T19:36:22.054Z,240.13
2019-01-21T19:38:49.600Z,220.13
2019-01-21T19:41:17.167Z,240.60
2019-01-21T19:43:44.646Z,199.43
2019-01-21T19:46:11.985Z,215.33
2019-01-21T19:48:39.532Z,215.47
2019-01-21T19:51:06.983Z,242.10
2019-01-21T19:53:34.431Z,202.30
2019-01-21T19:56:02.027Z,218.17
2019-01-21T19:58:29.405Z,206.97
2019-01-21T20:00:56.841Z,230.10
2019-01-21T20:03:24.369Z,214.83
2019-01-21T20:05:51.838Z,216.17
2019-01-21T20:08:19.209Z,212.80
2019-01-21T20:10:46.666Z,214.17
2019-01-21T20:13:14.090Z,207.23
2019-01-21T20:15:41.511Z,233.97
2019-01-21T20:18:08.907Z,262.10
2019-01-21T20:20:37.775Z,234.10
2019-01-21T20:23:05.085Z,221.50
2019-01-21T20:25:32.475Z,235.97
2019-01-21T20:27:59.955Z,269.93
2019-01-21T20:30:27.333Z,231.53
2019-01-21T20:32:54.746Z,239.97
2019-01-21T20:35:22.549Z,265.53
2019-01-21T20:37:50.140Z,232.93
2019-01-21T20:40:18.873Z,257.07
2019-01-21T20:42:46.399Z,268.90
2019-01-21T20:45:14.638Z,259.70
2019-01-21T20:47:42.699Z,237.13
2019-01-21T20:50:11.927Z,242.47
2019-01-21T20:52:39.447Z,259.90
2019-01-21T20:55:07.670Z,271.30
2019-01-21T20:57:35.264Z,293.83
2019-01-21T21:00:02.769Z,283.47
2019-01-21T21:02:30.294Z,261.07
2019-01-21T21:04:57.756Z,250.70
2019-01-21T21:07:25.323Z,316.10
2019-01-21T21:09:52.869Z,319.40
2019-01-21T21:12:25.775Z,312.97
2019-01-21T21:14:49.948Z,258.60
2019-01-21T21:17:17.458Z,258.67
2019-01-21T21:19:44.967Z,277.10
2019-01-21T21:22:12.495Z,280.80
2019-01-21T21:24:40.085Z,310.73
2019-01-21T21:27:07.588Z,288.77
2019-01-21T21:29:35.248Z,291.70
2019-01-21T21:32:02.730Z,271.23
2019-01-21T21:34:30.359Z,279.17
2019-01-21T21:36:57.777Z,293.40
2019-01-21T21:39:25.334Z,267.23
2019-01-21T21:41:53.098Z,283.17
2019-01-21T21:44:21.331Z,274.83
2019-01-21T21:46:48.851Z,280.77
2019-01-21T21:49:16.352Z,291.30
2019-01-21T21:51:44.026Z,263.27
2019-01-21T21:54:12.329Z,270.57
2019-01-21T21:56:39.841Z,284.40
2019-01-21T21:59:07.335Z,285.47
2019-01-21T22:01:34.849Z,278.17
2019-01-21T22:04:04.063Z,275.60
2019-01-21T22:06:31.569Z,273.60
2019-01-21T22:08:58.972Z,283.03
2019-01-21T22:11:26.539Z,322.87
2019-01-21T22:13:54.422Z,324.13
2019-01-21T22:16:21.909Z,310.47
2019-01-21T22:18:49.480Z,302.47
2019-01-21T22:21:16.986Z,293.90
2019-01-21T22:23:44.479Z,288.23
2019-01-21T22:26:11.916Z,260.63
2019-01-21T22:28:40.155Z,283.03
2019-01-21T22:31:07.572Z,262.90
2019-01-21T22:33:34.911Z,252.53
2019-01-21T22:36:02.306Z,249.33
2019-01-21T22:38:29.756Z,265.77
2019-01-21T22:40:57.207Z,257.13
2019-01-21T22:43:25.105Z,267.47
2019-01-21T22:45:52.520Z,244.03
2019-01-21T22:48:19.961Z,267.33
2019-01-21T22:50:47.656Z,250.10
2019-01-21T22:53:15.245Z,263.23
2019-01-21T22:55:42.602Z,260.37
2019-01-21T22:58:10.170Z,255.30
2019-01-21T23:00:44.120Z,263.83
2019-01-21T23:03:12.278Z,257.90
2019-01-21T23:05:39.809Z,240.30
2019-01-21T23:08:07.542Z,276.10
2019-01-21T23:10:37.668Z,269.17
2019-01-21T23:13:05.075Z,289.77
2019-01-21T23:15:32.462Z,268.63
2019-01-21T23:18:04.140Z,272.13
2019-01-21T23:20:31.960Z,264.43
2019-01-21T23:22:59.416Z,265.30
2019-01-21T23:25:26.825Z,279.73
2019-01-21T23:27:54.324Z,264.83
2019-01-21T23:30:22.294Z,267.60
2019-01-21T23:32:49.766Z,261.87
2019-01-21T23:35:18.182Z,263.83
2019-01-21T23:37:45.705Z,258.27
2019-01-21T23:40:13.306Z,265.47
2019-01-21T23:42:40.795Z,264.60
2019-01-21T23:45:09.246Z,282.07
2019-01-21T23:47:36.940Z,268.60
2019-01-21T23:50:05.990Z,251.63
2019-01-21T23:52:34.352Z,284.93
2019-01-21T23:55:02.509Z,285.57
2019-01-21T23:57:29.942Z,282.67
2019-01-21T23:59:58.691Z,290.07
